createdAt,value
2022-08-08T00:03:43.894Z,76.11
2022-08-08T00:09:33.199Z,76.12
2022-08-08T00:15:57.625Z,76.44
2022-08-08T00:21:05.977Z,76.71
2022-08-08T00:26:33.813Z,77.03
2022-08-08T00:32:20.396Z,76.66
2022-08-08T00:37:48.057Z,76.86
2022-08-08T00:44:00.566Z,76.58
2022-08-08T00:49:33.137Z,77.12
2022-08-08T00:55:52.610Z,77.40
2022-08-08T01:01:13.985Z,77.79
2022-08-08T01:07:34.517Z,78.23
2022-08-08T01:13:38.099Z,78.67
2022-08-08T01:19:52.344Z,79.22
2022-08-08T01:25:43.493Z,80.21
2022-08-08T01:32:13.905Z,81.41
2022-08-08T01:37:56.459Z,82.52
2022-08-08T01:43:38.654Z,83.45
2022-08-08T01:49:53.471Z,84.23
2022-08-08T01:56:26.988Z,84.83
2022-08-08T02:01:24.078Z,85.59
2022-08-08T02:07:24.836Z,86.30
2022-08-08T02:13:54.162Z,86.77
2022-08-08T02:18:50.984Z,86.97
2022-08-08T02:24:31.232Z,87.46
2022-08-08T02:30:03.045Z,87.77
2022-08-08T02:35:28.206Z,87.97
2022-08-08T02:41:59.329Z,88.08
2022-08-08T02:47:04.982Z,88.16
2022-08-08T02:52:57.421Z,88.17
2022-08-08T02:58:38.299Z,88.23
2022-08-08T03:05:03.588Z,88.04
2022-08-08T03:10:44.085Z,87.70
2022-08-08T03:16:35.494Z,88.01
2022-08-08T03:21:58.355Z,88.12
2022-08-08T03:28:03.788Z,88.85
2022-08-08T03:33:55.934Z,88.99
2022-08-08T03:39:14.421Z,89.87
2022-08-08T03:44:25.243Z,90.84
2022-08-08T03:49:58.097Z,91.58
2022-08-08T03:55:55.120Z,91.96
2022-08-08T04:00:56.518Z,92.42
2022-08-08T04:06:05.469Z,91.62
2022-08-08T04:11:29.628Z,90.54
2022-08-08T04:16:54.635Z,89.67
2022-08-08T04:22:18.682Z,88.69
2022-08-08T04:28:35.025Z,87.58
2022-08-08T04:33:08.183Z,86.74
2022-08-08T04:38:32.849Z,85.62
2022-08-08T04:43:57.227Z,84.85
2022-08-08T04:49:19.893Z,83.83
2022-08-08T04:54:44.019Z,82.49
2022-08-08T05:00:08.394Z,80.95
2022-08-08T05:05:44.858Z,79.05
2022-08-08T05:10:57.869Z,77.71
2022-08-08T05:16:52.272Z,76.42
2022-08-08T05:21:59.638Z,74.80
2022-08-08T05:27:10.909Z,72.84
2022-08-08T05:32:36.447Z,70.95
2022-08-08T05:38:04.450Z,70.61
2022-08-08T05:44:03.511Z,71.01
2022-08-08T05:49:06.392Z,70.84
2022-08-08T05:54:43.230Z,70.64
2022-08-08T06:00:22.933Z,70.36
2022-08-08T06:05:35.184Z,69.78
2022-08-08T06:10:51.951Z,68.77
2022-08-08T06:16:15.206Z,68.48
2022-08-08T06:21:48.978Z,68.16
2022-08-08T06:27:09.172Z,67.67
2022-08-08T06:32:36.027Z,66.11
2022-08-08T06:38:05.297Z,63.46
2022-08-08T06:43:33.961Z,61.22
2022-08-08T06:48:56.236Z,59.42
2022-08-08T06:54:20.417Z,58.86
2022-08-08T07:00:11.519Z,58.14
2022-08-08T07:05:20.004Z,56.86
2022-08-08T07:10:47.752Z,56.77
2022-08-08T07:16:31.437Z,54.74
2022-08-08T07:22:18.520Z,53.51
2022-08-08T07:28:00.637Z,53.21
2022-08-08T07:33:03.472Z,52.57
2022-08-08T07:38:28.631Z,50.59
2022-08-08T07:43:55.270Z,49.77
2022-08-08T07:49:18.645Z,51.24
2022-08-08T07:55:00.441Z,51.20
2022-08-08T08:00:28.884Z,49.83
2022-08-08T08:05:56.463Z,49.03
2022-08-08T08:11:21.417Z,47.89
2022-08-08T08:16:50.353Z,47.62
2022-08-08T08:22:12.733Z,46.26
2022-08-08T08:27:36.774Z,43.91
2022-08-08T08:32:59.232Z,42.92
2022-08-08T08:38:23.157Z,43.88
2022-08-08T08:43:48.489Z,42.73
2022-08-08T08:49:12.327Z,40.66
2022-08-08T08:54:40.009Z,41.31
2022-08-08T09:00:15.587Z,40.58
2022-08-08T09:05:54.077Z,38.06
2022-08-08T09:11:01.435Z,38.36
2022-08-08T09:16:28.825Z,38.62
2022-08-08T09:21:57.969Z,37.26
2022-08-08T09:27:21.989Z,36.88
2022-08-08T09:33:53.963Z,37.02
2022-08-08T09:38:27.843Z,36.99
2022-08-08T09:44:05.531Z,36.50
2022-08-08T09:49:42.851Z,37.14
2022-08-08T09:55:02.923Z,35.48
2022-08-08T10:00:50.138Z,30.58
2022-08-08T10:05:55.219Z,29.77
2022-08-08T10:12:27.355Z,30.53
2022-08-08T10:16:52.364Z,31.78
2022-08-08T10:22:17.113Z,31.32
2022-08-08T10:27:48.057Z,30.88
2022-08-08T10:33:13.561Z,30.98
2022-08-08T10:38:40.677Z,30.62
2022-08-08T10:44:06.248Z,31.67
2022-08-08T10:50:02.171Z,31.73
2022-08-08T10:55:39.780Z,32.09
2022-08-08T11:00:54.398Z,31.14
2022-08-08T11:06:14.509Z,31.26
2022-08-08T11:12:05.099Z,30.40
2022-08-08T11:17:14.932Z,29.86
2022-08-08T11:22:35.913Z,29.49
2022-08-08T11:28:07.189Z,29.47
2022-08-08T11:33:51.515Z,30.87
2022-08-08T11:38:56.125Z,30.48
2022-08-08T11:44:28.739Z,30.76
2022-08-08T11:49:49.086Z,29.48
2022-08-08T11:55:15.490Z,30.37
2022-08-08T12:00:39.608Z,31.20
2022-08-08T12:06:03.161Z,30.86
2022-08-08T12:11:35.369Z,31.58
2022-08-08T12:17:10.812Z,30.84
2022-08-08T12:22:39.988Z,29.37
2022-08-08T12:27:59.179Z,30.06
2022-08-08T12:33:37.842Z,30.22
2022-08-08T12:39:09.369Z,29.74
2022-08-08T12:44:36.934Z,30.99
2022-08-08T12:50:04.843Z,30.39
2022-08-08T12:55:56.542Z,30.40
2022-08-08T13:00:56.534Z,30.90
2022-08-08T13:06:28.656Z,30.46
2022-08-08T13:12:26.944Z,30.33
2022-08-08T13:28:22.165Z,31.83
2022-08-08T13:33:47.340Z,31.98
2022-08-08T13:39:13.268Z,31.29
2022-08-08T13:44:38.868Z,31.35
2022-08-08T13:50:37.778Z,30.04
2022-08-08T13:55:40.531Z,30.04
2022-08-08T14:01:04.421Z,31.18
2022-08-08T14:06:33.527Z,30.22
2022-08-08T14:11:55.544Z,30.97
2022-08-08T14:17:22.650Z,30.57
2022-08-08T14:22:49.235Z,30.27
2022-08-08T14:28:14.927Z,32.15
2022-08-08T14:33:47.053Z,31.73
2022-08-08T14:39:12.313Z,32.37
2022-08-08T14:44:39.431Z,31.61
2022-08-08T14:50:38.462Z,31.72
2022-08-08T14:55:45.879Z,31.45
2022-08-08T15:01:23.184Z,31.53
2022-08-08T15:06:33.296Z,31.41
2022-08-08T15:11:56.660Z,30.99
2022-08-08T15:17:20.556Z,30.48
2022-08-08T15:22:44.537Z,32.40
2022-08-08T15:28:34.485Z,31.50
2022-08-08T15:33:38.272Z,32.71
2022-08-08T15:38:58.350Z,33.60
2022-08-08T15:44:20.554Z,33.79
2022-08-08T15:49:44.936Z,34.06
2022-08-08T15:55:09.723Z,35.46
2022-08-08T16:00:32.669Z,36.16
2022-08-08T16:06:01.802Z,36.62
2022-08-08T16:13:11.481Z,37.51
2022-08-08T16:16:46.832Z,37.90
2022-08-08T16:22:10.993Z,37.91
2022-08-08T16:27:36.920Z,38.65
2022-08-08T16:32:59.849Z,38.54
2022-08-08T16:38:31.469Z,39.15
2022-08-08T16:43:49.141Z,39.15
2022-08-08T16:49:12.650Z,39.75
2022-08-08T16:55:00.059Z,40.38
2022-08-08T17:00:00.622Z,41.64
2022-08-08T17:05:22.933Z,42.11
2022-08-08T17:10:58.061Z,42.51
2022-08-08T17:16:15.428Z,42.88
2022-08-08T17:21:45.716Z,43.23
2022-08-08T17:27:11.063Z,43.63
2022-08-08T17:32:48.943Z,44.25
2022-08-08T17:37:58.844Z,44.14
2022-08-08T17:43:21.586Z,42.37
2022-08-08T17:48:45.156Z,43.12
2022-08-08T17:54:13.930Z,44.43
2022-08-08T17:59:36.120Z,45.32
2022-08-08T18:05:00.774Z,46.00
2022-08-08T18:10:31.357Z,46.58
2022-08-08T18:15:46.696Z,46.96
2022-08-08T18:21:34.900Z,47.63
2022-08-08T18:26:34.991Z,48.55
2022-08-08T18:31:57.238Z,49.01
2022-08-08T18:37:34.060Z,49.63
2022-08-08T18:42:50.175Z,50.29
2022-08-08T18:48:11.935Z,50.44
2022-08-08T18:54:00.955Z,51.43
2022-08-08T18:58:58.110Z,52.58
2022-08-08T19:04:22.036Z,53.08
2022-08-08T19:09:49.517Z,53.24
2022-08-08T19:15:09.045Z,53.63
2022-08-08T19:20:33.249Z,54.15
2022-08-08T19:26:26.866Z,54.05
2022-08-08T19:31:20.294Z,54.03
2022-08-08T19:36:45.422Z,54.12
2022-08-08T19:42:08.396Z,54.17
2022-08-08T19:47:33.998Z,54.31
2022-08-08T19:52:59.855Z,54.57
2022-08-08T19:58:19.566Z,54.49
2022-08-08T20:04:01.937Z,54.48
2022-08-08T20:09:09.087Z,54.33
2022-08-08T20:14:35.518Z,54.31
2022-08-08T20:19:55.254Z,54.29
2022-08-08T20:25:20.465Z,54.22
2022-08-08T20:30:56.036Z,54.37
2022-08-08T20:36:08.833Z,54.32
2022-08-08T20:41:32.313Z,54.63
2022-08-08T20:46:57.232Z,54.55
2022-08-08T20:52:20.051Z,54.15
2022-08-08T20:57:47.513Z,54.29
2022-08-08T21:03:09.060Z,54.54
2022-08-08T21:08:36.673Z,54.76
2022-08-08T21:13:58.429Z,55.12
2022-08-08T21:19:21.019Z,55.17
2022-08-08T21:24:52.691Z,55.31
2022-08-08T21:30:18.622Z,55.66
2022-08-08T21:36:17.944Z,56.13
2022-08-08T21:40:59.577Z,56.39
2022-08-08T21:48:05.021Z,56.46
2022-08-08T21:54:31.173Z,56.56
2022-08-08T21:57:15.858Z,57.01
2022-08-08T22:02:39.864Z,57.29
2022-08-08T22:08:03.276Z,57.59
2022-08-08T22:13:25.535Z,57.98
2022-08-08T22:18:52.777Z,58.52
2022-08-08T22:24:15.672Z,58.95
2022-08-08T22:29:59.573Z,59.06
2022-08-08T22:35:03.649Z,59.14
2022-08-08T22:40:27.590Z,59.39
2022-08-08T22:45:52.548Z,59.66
2022-08-08T22:51:16.138Z,59.90
2022-08-08T22:56:38.833Z,60.29
2022-08-08T23:02:05.335Z,60.80
2022-08-08T23:07:51.140Z,61.50
2022-08-08T23:12:51.808Z,62.25
2022-08-08T23:18:15.367Z,62.90
2022-08-08T23:23:48.907Z,63.40
2022-08-08T23:29:02.121Z,63.77
2022-08-08T23:34:24.398Z,63.96
2022-08-08T23:39:55.369Z,63.85
2022-08-08T23:45:13.619Z,63.95
2022-08-08T23:50:36.813Z,64.16
2022-08-08T23:55:59.504Z,64.17
